createdAt,value
2018-11-04T00:02:20.073Z,12.20
2018-11-04T00:04:49.445Z,11.40
2018-11-04T00:07:18.724Z,11.47
2018-11-04T00:09:48.022Z,12.17
2018-11-04T00:12:17.307Z,11.80
2018-11-04T00:14:46.732Z,11.23
2018-11-04T00:17:15.991Z,11.30
2018-11-04T00:19:45.264Z,11.17
2018-11-04T00:22:14.498Z,11.80
2018-11-04T00:24:43.683Z,10.00
2018-11-04T00:27:13.243Z,10.80
2018-11-04T00:29:42.534Z,10.77
2018-11-04T00:32:11.943Z,9.73
2018-11-04T00:34:41.787Z,10.83
2018-11-04T00:37:11.043Z,10.73
2018-11-04T00:39:40.282Z,9.73
2018-11-04T00:42:09.824Z,10.60
2018-11-04T00:44:39.082Z,10.43
2018-11-04T00:47:08.363Z,10.57
2018-11-04T00:49:37.683Z,10.13
2018-11-04T00:52:07.003Z,10.67
2018-11-04T00:54:36.616Z,10.47
2018-11-04T00:57:06.317Z,10.13
2018-11-04T00:59:35.577Z,10.43
2018-11-04T01:02:04.992Z,10.17
2018-11-04T01:04:34.262Z,10.87
2018-11-04T01:07:03.562Z,10.30
2018-11-04T01:09:32.822Z,10.83
2018-11-04T01:12:02.162Z,9.80
2018-11-04T01:14:31.532Z,11.03
2018-11-04T01:17:00.882Z,10.20
2018-11-04T01:19:30.142Z,9.67
2018-11-04T01:21:59.582Z,11.13
2018-11-04T01:24:28.900Z,10.60
2018-11-04T01:26:58.702Z,11.50
2018-11-04T01:29:28.006Z,13.00
2018-11-04T01:31:57.282Z,12.13
2018-11-04T01:34:26.622Z,13.63
2018-11-04T01:36:55.862Z,12.90
2018-11-04T01:39:25.202Z,12.80
2018-11-04T01:41:54.462Z,11.80
2018-11-04T01:44:23.778Z,12.60
2018-11-04T01:46:53.104Z,12.43
2018-11-04T01:49:22.372Z,13.30
2018-11-04T01:51:51.602Z,12.03
2018-11-04T01:54:20.922Z,13.10
2018-11-04T01:56:50.259Z,12.47
2018-11-04T01:59:19.862Z,11.97
2018-11-04T02:01:49.162Z,12.70
2018-11-04T02:04:18.382Z,12.50
2018-11-04T02:06:47.712Z,12.83
2018-11-04T02:09:16.942Z,13.23
2018-11-04T02:11:46.222Z,13.23
2018-11-04T02:14:15.446Z,13.00
2018-11-04T02:16:44.729Z,12.13
2018-11-04T02:19:13.937Z,12.37
2018-11-04T02:21:43.222Z,12.77
2018-11-04T02:24:12.482Z,12.30
2018-11-04T02:26:41.822Z,12.23
2018-11-04T02:29:11.122Z,12.33
2018-11-04T02:31:40.507Z,11.97
2018-11-04T02:34:10.042Z,12.33
2018-11-04T02:36:39.263Z,11.90
2018-11-04T02:39:09.103Z,12.87
2018-11-04T02:41:38.507Z,12.27
2018-11-04T02:44:07.883Z,12.00
2018-11-04T02:46:37.104Z,11.97
2018-11-04T02:49:06.423Z,11.93
2018-11-04T02:51:35.663Z,12.57
2018-11-04T02:54:05.163Z,12.17
2018-11-04T02:56:34.382Z,12.13
2018-11-04T02:59:03.705Z,12.23
2018-11-04T03:01:32.982Z,11.87
2018-11-04T03:04:02.278Z,11.97
2018-11-04T03:06:31.557Z,11.53
2018-11-04T03:09:00.782Z,11.77
2018-11-04T03:11:30.023Z,10.73
2018-11-04T03:13:59.282Z,10.90
2018-11-04T03:16:28.702Z,9.07
2018-11-04T03:18:57.922Z,8.83
2018-11-04T03:21:27.384Z,7.73
2018-11-04T03:23:56.622Z,6.90
2018-11-04T03:26:25.882Z,7.70
2018-11-04T03:28:55.562Z,7.40
2018-11-04T03:31:24.752Z,6.60
2018-11-04T03:33:53.979Z,6.90
2018-11-04T03:36:23.303Z,7.07
2018-11-04T03:38:53.402Z,6.80
2018-11-04T03:41:22.663Z,7.37
2018-11-04T03:43:51.883Z,7.00
2018-11-04T03:46:21.426Z,7.10
2018-11-04T03:48:50.782Z,7.70
2018-11-04T03:51:20.164Z,7.60
2018-11-04T03:53:49.422Z,7.23
2018-11-04T03:56:18.723Z,7.50
2018-11-04T03:58:49.083Z,9.67
2018-11-04T04:01:18.306Z,9.47
2018-11-04T04:03:47.604Z,8.77
2018-11-04T04:06:17.322Z,7.00
2018-11-04T04:08:47.242Z,6.77
2018-11-04T04:11:16.658Z,7.00
2018-11-04T04:13:45.872Z,7.07
2018-11-04T04:16:15.502Z,6.40
2018-11-04T04:18:44.742Z,6.50
2018-11-04T04:21:14.345Z,5.33
2018-11-04T04:23:43.583Z,15.23
2018-11-04T04:26:12.869Z,6.80
2018-11-04T04:28:42.762Z,6.60
2018-11-04T04:31:11.998Z,7.23
2018-11-04T04:33:41.282Z,11.50
2018-11-04T04:36:10.607Z,9.77
2018-11-04T04:38:39.982Z,8.40
2018-11-04T04:41:09.302Z,7.47
2018-11-04T04:43:38.522Z,12.33
2018-11-04T04:46:07.821Z,9.00
2018-11-04T04:48:37.027Z,7.23
2018-11-04T04:51:06.582Z,7.73
2018-11-04T04:53:35.842Z,7.07
2018-11-04T04:56:05.363Z,7.57
2018-11-04T04:58:34.842Z,8.17
2018-11-04T05:01:04.511Z,7.60
2018-11-04T05:03:33.702Z,7.87
2018-11-04T05:06:02.974Z,9.13
2018-11-04T05:08:32.242Z,9.27
2018-11-04T05:11:01.502Z,9.60
2018-11-04T05:13:30.802Z,9.50
2018-11-04T05:16:00.044Z,9.33
2018-11-04T05:18:29.402Z,9.13
2018-11-04T05:20:58.594Z,10.80
2018-11-04T05:23:27.841Z,10.13
2018-11-04T05:25:57.162Z,12.17
2018-11-04T05:28:26.349Z,10.90
2018-11-04T05:30:55.582Z,9.07
2018-11-04T05:33:24.722Z,9.23
2018-11-04T05:35:54.006Z,9.67
2018-11-04T05:38:23.342Z,8.20
2018-11-04T05:40:52.697Z,7.47
2018-11-04T05:43:21.984Z,8.40
2018-11-04T05:45:51.567Z,8.90
2018-11-04T05:48:20.845Z,7.57
2018-11-04T05:50:50.063Z,7.90
2018-11-04T05:53:19.483Z,7.77
2018-11-04T05:55:48.762Z,8.67
2018-11-04T05:58:18.001Z,9.93
2018-11-04T06:00:47.382Z,10.10
2018-11-04T06:03:16.568Z,8.83
2018-11-04T06:05:45.863Z,6.77
2018-11-04T06:08:15.133Z,5.70
2018-11-04T06:10:44.547Z,6.33
2018-11-04T06:13:13.773Z,6.23
2018-11-04T06:15:43.725Z,5.97
2018-11-04T06:18:13.046Z,5.77
2018-11-04T06:20:42.273Z,6.87
2018-11-04T06:23:11.625Z,6.63
2018-11-04T06:25:40.868Z,7.00
2018-11-04T06:28:10.188Z,6.63
2018-11-04T06:30:39.486Z,5.97
2018-11-04T06:33:08.745Z,6.27
2018-11-04T06:35:38.017Z,6.23
2018-11-04T06:38:07.625Z,5.13
2018-11-04T06:40:37.065Z,5.60
2018-11-04T06:43:06.945Z,5.40
2018-11-04T06:45:36.305Z,5.37
2018-11-04T06:48:05.860Z,27.50
2018-11-04T06:50:35.267Z,9.10
2018-11-04T06:53:05.041Z,5.37
2018-11-04T06:55:34.267Z,4.77
2018-11-04T06:58:03.641Z,4.77
2018-11-04T07:00:33.187Z,4.73
2018-11-04T07:03:02.591Z,4.83
2018-11-04T07:05:31.930Z,4.60
2018-11-04T07:08:01.467Z,4.80
2018-11-04T07:10:30.747Z,4.87
2018-11-04T07:13:00.048Z,4.33
2018-11-04T07:15:29.372Z,4.07
2018-11-04T07:17:58.748Z,4.00
2018-11-04T07:20:28.049Z,3.77
2018-11-04T07:22:57.346Z,4.37
2018-11-04T07:25:26.617Z,4.00
2018-11-04T07:27:56.001Z,4.10
2018-11-04T07:30:25.224Z,3.90
2018-11-04T07:32:54.561Z,3.80
2018-11-04T07:35:23.999Z,4.27
2018-11-04T07:37:53.321Z,4.20
2018-11-04T07:40:22.721Z,4.70
2018-11-04T07:42:52.021Z,3.87
2018-11-04T07:45:21.373Z,4.07
2018-11-04T07:47:50.568Z,4.17
2018-11-04T07:50:20.355Z,5.60
2018-11-04T07:52:49.582Z,5.10
2018-11-04T07:55:18.821Z,4.90
2018-11-04T07:57:48.141Z,4.67
2018-11-04T08:00:17.561Z,5.27
2018-11-04T08:02:46.823Z,4.80
2018-11-04T08:05:16.384Z,5.10
2018-11-04T08:07:45.762Z,5.13
2018-11-04T08:10:15.122Z,4.70
2018-11-04T08:12:44.351Z,4.70
2018-11-04T08:15:13.703Z,4.50
2018-11-04T08:17:43.083Z,3.97
2018-11-04T08:20:12.381Z,4.30
2018-11-04T08:22:41.782Z,4.40
2018-11-04T08:25:12.001Z,3.80
2018-11-04T08:27:41.352Z,4.20
2018-11-04T08:30:10.742Z,4.37
2018-11-04T08:32:40.101Z,4.40
2018-11-04T08:35:09.645Z,4.50
2018-11-04T08:37:38.942Z,4.57
2018-11-04T08:40:08.727Z,5.57
2018-11-04T08:42:37.984Z,5.03
2018-11-04T08:45:08.066Z,5.20
2018-11-04T08:47:37.284Z,5.70
2018-11-04T08:50:08.903Z,5.60
2018-11-04T08:52:38.279Z,5.33
2018-11-04T08:55:09.282Z,5.90
2018-11-04T08:57:38.641Z,6.60
2018-11-04T09:00:11.630Z,8.17
2018-11-04T09:02:41.541Z,7.77
2018-11-04T09:05:10.982Z,8.97
2018-11-04T09:07:40.214Z,8.47
2018-11-04T09:10:13.583Z,9.53
2018-11-04T09:12:43.722Z,19.03
2018-11-04T09:15:13.402Z,14.57
2018-11-04T09:17:42.721Z,13.70
2018-11-04T09:20:15.241Z,14.67
2018-11-04T09:22:44.730Z,14.13
2018-11-04T09:25:14.591Z,13.00
2018-11-04T09:27:44.040Z,15.37
2018-11-04T09:30:14.859Z,14.57
2018-11-04T09:32:45.179Z,13.40
2018-11-04T09:35:14.577Z,14.93
2018-11-04T09:37:43.781Z,14.60
2018-11-04T09:40:13.647Z,15.43
2018-11-04T09:42:42.925Z,14.27
2018-11-04T09:45:12.025Z,14.97
2018-11-04T09:47:41.326Z,14.17
2018-11-04T09:50:11.967Z,15.10
2018-11-04T09:52:41.301Z,15.13
2018-11-04T09:55:11.491Z,15.53
2018-11-04T09:57:40.823Z,15.03
2018-11-04T10:00:11.887Z,16.80
2018-11-04T10:02:41.343Z,16.20
2018-11-04T10:05:11.271Z,15.77
2018-11-04T10:07:41.721Z,15.67
2018-11-04T10:10:12.750Z,17.43
2018-11-04T10:12:43.179Z,16.53
2018-11-04T10:15:12.236Z,18.40
2018-11-04T10:17:41.751Z,17.60
2018-11-04T10:20:12.638Z,18.80
2018-11-04T10:22:41.995Z,16.97
2018-11-04T10:25:12.256Z,17.40
2018-11-04T10:27:42.117Z,16.97
2018-11-04T10:30:13.841Z,18.30
2018-11-04T10:32:43.144Z,19.50
2018-11-04T10:35:12.284Z,18.23
2018-11-04T10:37:41.983Z,18.93
2018-11-04T10:40:12.054Z,19.90
2018-11-04T10:42:41.493Z,18.30
2018-11-04T10:45:11.457Z,19.87
2018-11-04T10:47:40.754Z,19.87
2018-11-04T10:50:11.879Z,20.47
2018-11-04T10:52:41.239Z,19.80
2018-11-04T10:55:11.111Z,21.80
2018-11-04T10:57:40.736Z,21.67
2018-11-04T11:00:16.441Z,21.07
2018-11-04T11:02:46.125Z,22.80
2018-11-04T11:05:15.849Z,22.73
2018-11-04T11:07:45.218Z,22.70
2018-11-04T11:10:14.509Z,22.80
2018-11-04T11:12:43.749Z,23.47
2018-11-04T11:15:13.090Z,23.17
2018-11-04T11:17:42.321Z,25.67
2018-11-04T11:20:12.170Z,23.37
2018-11-04T11:22:42.141Z,26.03
2018-11-04T11:25:11.570Z,23.63
2018-11-04T11:27:40.749Z,24.67
2018-11-04T11:30:10.132Z,25.70
2018-11-04T11:32:39.369Z,25.87
2018-11-04T11:35:08.791Z,24.80
2018-11-04T11:37:38.465Z,25.73
2018-11-04T11:40:09.096Z,26.43
2018-11-04T11:42:38.469Z,26.13
2018-11-04T11:45:08.737Z,26.43
2018-11-04T11:47:38.089Z,25.73
2018-11-04T11:50:07.729Z,26.67
2018-11-04T11:52:37.086Z,25.33
2018-11-04T11:55:07.349Z,26.50
2018-11-04T11:57:36.708Z,36.90
2018-11-04T12:00:09.008Z,25.97
2018-11-04T12:02:39.090Z,26.23
2018-11-04T12:05:08.850Z,69.37
2018-11-04T12:07:38.428Z,27.20
2018-11-04T12:10:12.068Z,27.40
2018-11-04T12:12:41.371Z,32.07
2018-11-04T12:15:12.090Z,27.77
2018-11-04T12:17:41.540Z,26.53
2018-11-04T12:20:12.243Z,27.80
2018-11-04T12:22:41.663Z,26.57
2018-11-04T12:25:12.458Z,27.67
2018-11-04T12:27:41.979Z,32.10
2018-11-04T12:30:14.559Z,28.03
2018-11-04T12:32:43.858Z,28.07
2018-11-04T12:35:14.258Z,30.40
2018-11-04T12:37:43.609Z,29.67
2018-11-04T12:40:13.540Z,35.43
2018-11-04T12:42:43.262Z,29.70
2018-11-04T12:45:13.339Z,27.73
2018-11-04T12:47:43.139Z,28.60
2018-11-04T12:50:13.121Z,28.17
2018-11-04T12:52:42.519Z,28.90
2018-11-04T12:55:11.940Z,28.50
2018-11-04T12:57:41.319Z,27.63
2018-11-04T13:00:13.562Z,27.73
2018-11-04T13:02:43.938Z,28.57
2018-11-04T13:05:13.358Z,29.70
2018-11-04T13:07:42.721Z,29.17
2018-11-04T13:10:13.613Z,28.90
2018-11-04T13:12:43.012Z,29.67
2018-11-04T13:15:13.630Z,28.93
2018-11-04T13:17:43.518Z,30.30
2018-11-04T13:20:12.992Z,28.10
2018-11-04T13:22:42.312Z,29.77
2018-11-04T13:25:11.691Z,29.47
2018-11-04T13:27:41.131Z,29.03
2018-11-04T13:30:12.193Z,28.60
2018-11-04T13:32:41.614Z,27.30
2018-11-04T13:35:11.011Z,28.87
2018-11-04T13:37:40.325Z,29.73
2018-11-04T13:40:11.581Z,28.33
2018-11-04T13:42:41.505Z,29.40
2018-11-04T13:45:11.863Z,28.10
2018-11-04T13:47:41.175Z,27.30
2018-11-04T13:50:12.575Z,27.43
2018-11-04T13:52:42.755Z,30.83
2018-11-04T13:55:12.002Z,31.20
2018-11-04T13:57:43.744Z,31.13
2018-11-04T14:00:14.999Z,30.03
2018-11-04T14:02:45.780Z,31.87
2018-11-04T14:05:15.160Z,31.97
2018-11-04T14:07:44.338Z,31.70
2018-11-04T14:10:14.762Z,31.73
2018-11-04T14:12:44.899Z,31.27
2018-11-04T14:15:15.044Z,31.23
2018-11-04T14:17:44.464Z,34.43
2018-11-04T14:20:15.264Z,33.33
2018-11-04T14:22:44.584Z,34.63
2018-11-04T14:25:13.962Z,34.50
2018-11-04T14:27:43.318Z,36.43
2018-11-04T14:30:14.537Z,34.30
2018-11-04T14:32:44.372Z,33.17
2018-11-04T14:35:14.572Z,37.87
2018-11-04T14:37:43.951Z,36.63
2018-11-04T14:40:14.537Z,37.40
2018-11-04T14:42:44.735Z,37.40
2018-11-04T14:45:14.398Z,36.03
2018-11-04T14:47:43.775Z,37.37
2018-11-04T14:50:15.981Z,38.50
2018-11-04T14:52:45.620Z,36.20
2018-11-04T14:55:14.934Z,37.47
2018-11-04T14:57:44.376Z,37.90
2018-11-04T15:00:15.096Z,38.93
2018-11-04T15:02:44.475Z,37.33
2018-11-04T15:05:14.575Z,37.60
2018-11-04T15:07:43.875Z,37.37
2018-11-04T15:10:14.574Z,40.37
2018-11-04T15:12:44.294Z,40.17
2018-11-04T15:15:15.176Z,40.67
2018-11-04T15:17:44.616Z,39.30
2018-11-04T15:20:13.934Z,40.77
2018-11-04T15:22:46.014Z,40.87
2018-11-04T15:25:16.434Z,42.37
2018-11-04T15:27:46.054Z,40.00
2018-11-04T15:30:15.414Z,43.70
2018-11-04T15:32:44.890Z,40.97
2018-11-04T15:35:15.775Z,41.03
2018-11-04T15:37:45.402Z,40.33
2018-11-04T15:40:15.670Z,41.13
2018-11-04T15:42:45.074Z,40.57
2018-11-04T15:45:15.339Z,41.03
2018-11-04T15:47:44.797Z,39.97
2018-11-04T15:50:15.588Z,39.60
2018-11-04T15:52:45.315Z,41.40
2018-11-04T15:55:14.670Z,40.40
2018-11-04T15:57:43.989Z,41.27
2018-11-04T16:00:15.770Z,40.60
2018-11-04T16:02:45.064Z,39.43
2018-11-04T16:05:14.451Z,40.20
2018-11-04T16:07:43.791Z,39.53
2018-11-04T16:10:13.583Z,41.47
2018-11-04T16:12:42.939Z,37.87
2018-11-04T16:15:14.091Z,39.00
2018-11-04T16:17:43.958Z,39.00
2018-11-04T16:20:14.708Z,37.93
2018-11-04T16:22:44.798Z,39.67
2018-11-04T16:25:14.430Z,41.50
2018-11-04T16:27:43.757Z,39.00
2018-11-04T16:30:14.178Z,38.77
2018-11-04T16:32:43.581Z,43.17
2018-11-04T16:35:14.198Z,39.87
2018-11-04T16:37:44.512Z,40.00
2018-11-04T16:40:13.899Z,39.27
2018-11-04T16:42:43.237Z,39.90
2018-11-04T16:45:15.078Z,40.90
2018-11-04T16:47:44.557Z,39.13
2018-11-04T16:50:14.671Z,38.00
2018-11-04T16:52:44.459Z,37.83
2018-11-04T16:55:14.060Z,37.93
2018-11-04T16:57:44.176Z,39.77
2018-11-04T17:00:13.434Z,39.40
2018-11-04T17:02:42.879Z,39.17
2018-11-04T17:05:12.967Z,37.27
2018-11-04T17:07:42.998Z,37.20
2018-11-04T17:10:12.359Z,41.17
2018-11-04T17:12:41.718Z,37.60
2018-11-04T17:15:13.159Z,40.30
2018-11-04T17:17:42.676Z,40.87
2018-11-04T17:20:16.099Z,41.03
2018-11-04T17:22:46.077Z,41.60
2018-11-04T17:25:15.599Z,40.17
2018-11-04T17:27:45.039Z,41.03
2018-11-04T17:30:16.397Z,43.40
2018-11-04T17:32:47.350Z,43.83
2018-11-04T17:35:17.457Z,40.90
2018-11-04T17:37:47.141Z,41.47
2018-11-04T17:40:17.257Z,43.70
2018-11-04T17:42:46.617Z,41.23
2018-11-04T17:45:16.684Z,40.33
2018-11-04T17:47:46.500Z,42.57
2018-11-04T17:50:18.565Z,39.97
2018-11-04T17:52:48.257Z,40.83
2018-11-04T17:55:17.782Z,41.07
2018-11-04T17:57:47.116Z,41.03
2018-11-04T18:00:17.220Z,40.03
2018-11-04T18:02:46.877Z,39.93
2018-11-04T18:05:16.097Z,39.93
2018-11-04T18:07:45.456Z,40.97
2018-11-04T18:10:15.661Z,38.57
2018-11-04T18:12:45.064Z,38.63
2018-11-04T18:15:15.122Z,39.40
2018-11-04T18:17:44.517Z,38.53
2018-11-04T18:20:13.937Z,38.47
2018-11-04T18:22:43.277Z,37.20
2018-11-04T18:25:13.437Z,38.83
2018-11-04T18:27:42.776Z,39.30
2018-11-04T18:30:14.436Z,40.17
2018-11-04T18:32:44.860Z,41.07
2018-11-04T18:35:15.237Z,39.33
2018-11-04T18:37:44.597Z,42.93
2018-11-04T18:40:16.636Z,40.60
2018-11-04T18:42:46.396Z,39.20
2018-11-04T18:45:16.579Z,40.67
2018-11-04T18:47:46.376Z,39.73
2018-11-04T18:50:16.461Z,39.90
2018-11-04T18:52:45.988Z,38.57
2018-11-04T18:55:15.297Z,37.63
2018-11-04T18:57:45.682Z,34.27
2018-11-04T19:00:16.597Z,31.60
2018-11-04T19:02:47.237Z,32.67
2018-11-04T19:05:16.634Z,40.90
2018-11-04T19:07:46.217Z,29.00
2018-11-04T19:10:17.097Z,28.47
2018-11-04T19:12:46.497Z,27.73
2018-11-04T19:15:15.798Z,26.63
2018-11-04T19:17:45.219Z,27.23
2018-11-04T19:20:15.319Z,27.63
2018-11-04T19:22:44.817Z,26.63
2018-11-04T19:25:14.937Z,27.00
2018-11-04T19:27:44.277Z,26.20
2018-11-04T19:30:15.110Z,25.87
2018-11-04T19:32:44.817Z,28.33
2018-11-04T19:35:15.518Z,29.87
2018-11-04T19:37:44.864Z,27.63
2018-11-04T19:40:15.357Z,37.43
2018-11-04T19:42:44.680Z,28.37
2018-11-04T19:45:14.080Z,29.33
2018-11-04T19:47:43.437Z,36.80
2018-11-04T19:50:13.318Z,32.87
2018-11-04T19:52:42.944Z,33.97
2018-11-04T19:55:12.702Z,39.53
2018-11-04T19:57:42.385Z,35.47
2018-11-04T20:00:13.182Z,34.67
2018-11-04T20:02:42.523Z,39.97
2018-11-04T20:05:12.858Z,36.57
2018-11-04T20:07:42.764Z,35.33
2018-11-04T20:10:17.383Z,37.87
2018-11-04T20:13:49.438Z,38.23
2018-11-04T20:16:18.839Z,35.57
2018-11-04T20:18:53.522Z,37.07
2018-11-04T20:21:29.478Z,33.73
2018-11-04T20:24:11.137Z,31.20
2018-11-04T20:26:40.577Z,35.67
2018-11-04T20:29:09.898Z,33.67
2018-11-04T20:33:47.738Z,33.47
2018-11-04T20:36:17.038Z,33.10
2018-11-04T20:38:51.739Z,37.33
2018-11-04T20:41:30.438Z,35.77
2018-11-04T20:44:00.858Z,37.80
2018-11-04T20:46:30.303Z,36.97
2018-11-04T20:49:04.998Z,35.53
2018-11-04T20:51:34.803Z,36.73
2018-11-04T20:54:04.438Z,38.90
2018-11-04T20:56:39.258Z,36.20
2018-11-04T20:59:08.615Z,39.83
2018-11-04T21:01:38.015Z,39.67
2018-11-04T21:04:07.836Z,44.27
2018-11-04T21:06:37.156Z,44.30
2018-11-04T21:09:10.195Z,43.93
2018-11-04T21:11:39.575Z,42.97
2018-11-04T21:14:08.995Z,41.60
2018-11-04T21:16:38.558Z,37.10
2018-11-04T21:19:07.798Z,37.60
2018-11-04T21:21:37.166Z,41.17
2018-11-04T21:24:06.494Z,40.70
2018-11-04T21:26:35.835Z,37.00
2018-11-04T21:29:05.235Z,40.30
2018-11-04T21:31:34.435Z,40.60
2018-11-04T21:34:03.714Z,39.73
2018-11-04T21:36:33.158Z,37.40
2018-11-04T21:39:02.374Z,38.97
2018-11-04T21:41:31.802Z,38.67
2018-11-04T21:44:01.341Z,38.53
2018-11-04T21:46:30.554Z,38.50
2018-11-04T21:48:59.917Z,35.20
2018-11-04T21:51:29.255Z,37.97
2018-11-04T21:53:58.577Z,37.73
2018-11-04T21:56:28.048Z,38.10
2018-11-04T21:58:57.295Z,37.50
2018-11-04T22:01:26.662Z,36.00
2018-11-04T22:03:56.183Z,36.90
2018-11-04T22:06:25.375Z,37.30
2018-11-04T22:08:54.757Z,35.97
2018-11-04T22:11:24.121Z,36.70
2018-11-04T22:13:53.976Z,35.83
2018-11-04T22:16:23.396Z,35.83
2018-11-04T22:18:52.662Z,37.97
2018-11-04T22:21:21.955Z,36.73
2018-11-04T22:23:51.235Z,36.97
2018-11-04T22:26:20.678Z,40.30
2018-11-04T22:28:49.995Z,38.03
2018-11-04T22:31:19.316Z,40.33
2018-11-04T22:33:48.614Z,38.13
2018-11-04T22:36:18.000Z,41.97
2018-11-04T22:38:47.255Z,39.57
2018-11-04T22:41:16.666Z,41.93
2018-11-04T22:43:46.047Z,39.67
2018-11-04T22:46:15.327Z,40.47
2018-11-04T22:48:44.727Z,42.13
2018-11-04T22:51:14.127Z,40.87
2018-11-04T22:53:43.506Z,39.30
2018-11-04T22:56:12.884Z,39.93
2018-11-04T22:58:42.307Z,39.77
2018-11-04T23:01:11.666Z,37.93
2018-11-04T23:03:41.266Z,37.17
2018-11-04T23:06:10.607Z,36.40
2018-11-04T23:08:39.948Z,36.43
2018-11-04T23:11:09.326Z,34.20
2018-11-04T23:13:39.106Z,34.90
2018-11-04T23:16:08.527Z,34.93
2018-11-04T23:18:37.853Z,33.90
2018-11-04T23:21:07.164Z,33.20
2018-11-04T23:23:36.504Z,33.80
2018-11-04T23:26:06.724Z,32.87
2018-11-04T23:28:36.047Z,32.30
2018-11-04T23:31:05.465Z,30.83
2018-11-04T23:33:34.844Z,31.60
2018-11-04T23:36:04.203Z,30.90
2018-11-04T23:38:33.786Z,32.53
2018-11-04T23:41:03.044Z,32.87
2018-11-04T23:43:32.403Z,31.10
2018-11-04T23:46:01.744Z,32.07
2018-11-04T23:48:31.124Z,30.50
2018-11-04T23:51:00.444Z,30.80
2018-11-04T23:53:29.823Z,30.47
2018-11-04T23:55:59.165Z,27.00
2018-11-04T23:58:28.666Z,29.60
